Time;durP1;ratioP1;P1;durP2;ratioP2;P2;SDS_P1;SDS_P2;PMS_P1;PMS_P2;Temp;Humidity;BMP_temperature;BMP_pressure;BME280_temperature;BME280_humidity;BME280_pressure;Samples;Min_cycle;Max_cycle;Signal;HPM_P1;HPM_P2
2022/06/21 00:02:18;;;;;;;;;;;;;;;;;;4978376;28;8077;-84
2022/06/21 00:04:44;;;;;;;;;;;;;;;;;;4977940;28;7257;-84
2022/06/21 00:07:24;;;;;;;;;;;;;;;;;;4977792;28;7026;-84
2022/06/21 00:09:50;;;;;;;;;;;;;;;;;;4977459;28;7063;-85
2022/06/21 00:12:16;;;;;;;;;;;;;;;;;;4978057;28;8561;-86
2022/06/21 00:14:42;;;;;;;;;;;;;;;;;;4977684;28;8720;-85
2022/06/21 00:17:16;;;;;;;;;;;;;;;;;;4978151;28;8844;-85
2022/06/21 00:19:43;;;;;;;;;;;;;;;;;;4977973;28;7192;-85
2022/06/21 00:22:12;;;;;;;;;;;;;;;;;;4978549;28;7372;-85
2022/06/21 00:24:38;;;;;;;;;;;;;;;;;;4977843;28;7185;-85
2022/06/21 00:27:04;;;;;;;;;;;;;;;;;;4977301;28;7153;-85
2022/06/21 00:29:30;;;;;;;;;;;;;;;;;;4977087;28;7411;-86
2022/06/21 00:31:56;;;;;;;;;;;;;;;;;;4977953;28;7205;-85
2022/06/21 00:34:22;;;;;;;;;;;;;;;;;;4977246;28;7014;-84
2022/06/21 00:36:50;;;;;;;;;;;;;;;;;;4977197;28;8306;-85
2022/06/21 00:39:17;;;;;;;;;;;;;;;;;;4977242;28;7398;-85
2022/06/21 00:41:45;;;;;;;;;;;;;;;;;;4977756;28;8278;-85
2022/06/21 00:44:15;;;;;;;;;;;;;;;;;;4976032;28;8395;-85
2022/06/21 00:47:07;;;;;;;;;;;;;;;;;;4977094;28;7153;-85
2022/06/21 00:49:43;;;;;;;;;;;;;;;;;;4961929;28;8426;-85
2022/06/21 00:52:16;;;;;;;;;;;;;;;;;;4977009;28;8761;-85
2022/06/21 00:55:03;;;;;;;;;;;;;;;;;;4977151;28;7028;-85
2022/06/21 00:57:51;;;;;;;;;;;;;;;;;;4976134;28;8778;-85
2022/06/21 01:00:25;;;;;;;;;;;;;;;;;;4976981;28;8486;-86
2022/06/21 01:02:51;;;;;;;;;;;;;;;;;;4977327;28;8493;-85
2022/06/21 01:05:17;;;;;;;;;;;;;;;;;;4976460;28;7153;-85
2022/06/21 01:07:43;;;;;;;;;;;;;;;;;;4977519;28;8491;-85
2022/06/21 01:10:13;;;;;;;;;;;;;;;;;;4976589;28;8572;-84
2022/06/21 01:12:42;;;;;;;;;;;;;;;;;;4976291;28;8763;-85
2022/06/21 01:15:17;;;;;;;;;;;;;;;;;;4993093;28;7028;-84
2022/06/21 01:17:43;;;;;;;;;;;;;;;;;;4976857;28;8302;-84
2022/06/21 01:20:11;;;;;;;;;;;;;;;;;;4977120;28;7104;-84
2022/06/21 01:22:47;;;;;;;;;;;;;;;;;;4976560;28;7279;-85
2022/06/21 01:25:19;;;;;;;;;;;;;;;;;;4976397;28;8403;-85
2022/06/21 01:27:45;;;;;;;;;;;;;;;;;;4992657;28;8496;-86
2022/06/21 01:30:11;;;;;;;;;;;;;;;;;;4977268;28;7173;-85
2022/06/21 01:32:37;;;;;;;;;;;;;;;;;;4975884;28;7234;-86
2022/06/21 01:35:13;;;;;;;;;;;;;;;;;;4976021;28;7133;-85
2022/06/21 01:37:41;;;;;;;;;;;;;;;;;;4976029;28;7237;-85
2022/06/21 01:40:12;;;;;;;;;;;;;;;;;;4976100;28;8373;-85
2022/06/21 01:42:48;;;;;;;;;;;;;;;;;;4976458;28;8486;-86
2022/06/21 01:45:20;;;;;;;;;;;;;;;;;;4976465;28;7021;-85
2022/06/21 01:47:57;;;;;;;;;;;;;;;;;;4976196;28;7168;-85
2022/06/21 01:50:23;;;;;;;;;;;;;;;;;;4992208;28;7073;-85
2022/06/21 01:52:52;;;;;;;;;;;;;;;;;;4976075;28;8727;-85
2022/06/21 01:55:20;;;;;;;;;;;;;;;;;;4976110;28;8421;-85
2022/06/21 01:57:49;;;;;;;;;;;;;;;;;;4992283;28;7158;-85
2022/06/21 02:00:15;;;;;;;;;;;;;;;;;;4975708;28;7183;-85
2022/06/21 02:02:47;;;;;;;;;;;;;;;;;;4975729;28;7334;-85
2022/06/21 02:05:17;;;;;;;;;;;;;;;;;;4975637;28;7164;-85
2022/06/21 02:07:49;;;;;;;;;;;;;;;;;;4974989;28;8442;-85
2022/06/21 02:10:20;;;;;;;;;;;;;;;;;;4975507;28;8733;-85
2022/06/21 02:13:00;;;;;;;;;;;;;;;;;;4974990;28;7027;-84
2022/06/21 02:15:29;;;;;;;;;;;;;;;;;;4976175;28;8467;-85
2022/06/21 02:17:57;;;;;;;;;;;;;;;;;;4992168;28;8412;-85
2022/06/21 02:26:35;;;;;;;;;;;;;;;;;;4976147;28;6850;-85
2022/06/21 02:29:01;;;;;;;;;;;;;;;;;;4975167;28;8365;-84
2022/06/21 02:31:27;;;;;;;;;;;;;;;;;;4991490;28;7113;-85
2022/06/21 02:33:58;;;;;;;;;;;;;;;;;;4975160;28;7023;-85
2022/06/21 02:36:29;;;;;;;;;;;;;;;;;;4975704;28;8788;-85
2022/06/21 02:38:58;;;;;;;;;;;;;;;;;;4975415;28;7176;-85
2022/06/21 02:41:31;;;;;;;;;;;;;;;;;;4975286;28;8749;-85
2022/06/21 02:44:11;;;;;;;;;;;;;;;;;;4975110;28;7202;-85
2022/06/21 02:46:40;;;;;;;;;;;;;;;;;;4975652;28;7172;-86
2022/06/21 02:49:14;;;;;;;;;;;;;;;;;;4975468;28;7233;-85
2022/06/21 02:51:55;;;;;;;;;;;;;;;;;;4991228;28;8351;-85
2022/06/21 02:54:26;;;;;;;;;;;;;;;;;;4974913;28;7144;-85
2022/06/21 02:56:58;;;;;;;;;;;;;;;;;;4975262;28;8775;-85
2022/06/21 02:59:24;;;;;;;;;;;;;;;;;;4974980;28;8456;-84
2022/06/21 03:01:54;;;;;;;;;;;;;;;;;;4975203;28;6939;-85
2022/06/21 03:04:23;;;;;;;;;;;;;;;;;;4975110;28;7152;-84
2022/06/21 03:06:50;;;;;;;;;;;;;;;;;;4974975;28;8427;-85
2022/06/21 03:09:20;;;;;;;;;;;;;;;;;;4974677;28;7163;-84
2022/06/21 03:11:48;;;;;;;;;;;;;;;;;;4974882;28;8566;-85
2022/06/21 03:14:16;;;;;;;;;;;;;;;;;;4974781;28;8400;-84
2022/06/21 03:16:45;;;;;;;;;;;;;;;;;;4974860;28;8744;-85
2022/06/21 03:19:37;;;;;;;;;;;;;;;;;;4975203;28;8388;-85
2022/06/21 03:22:13;;;;;;;;;;;;;;;;;;4976604;28;8471;-85
2022/06/21 03:24:39;;;;;;;;;;;;;;;;;;4978430;28;7414;-84
2022/06/21 03:27:23;;;;;;;;;;;;;;;;;;4978346;28;8366;-85
2022/06/21 03:29:49;;;;;;;;;;;;;;;;;;4995021;28;7036;-84
2022/06/21 03:32:15;;;;;;;;;;;;;;;;;;4978892;28;7432;-84
2022/06/21 03:34:43;;;;;;;;;;;;;;;;;;4978462;28;7170;-85
2022/06/21 03:37:09;;;;;;;;;;;;;;;;;;4978497;28;8320;-85
2022/06/21 03:42:25;;;;;;;;;;;;;;;;;;4979697;28;7006;-84
2022/06/21 03:44:59;;;;;;;;;;;;;;;;;;4978178;28;7143;-84
2022/06/21 03:47:37;;;;;;;;;;;;;;;;;;4978251;28;8686;-84
2022/06/21 03:50:26;;;;;;;;;;;;;;;;;;4978287;28;7134;-86
2022/06/21 03:52:54;;;;;;;;;;;;;;;;;;4977847;28;7202;-84
2022/06/21 03:55:35;;;;;;;;;;;;;;;;;;4994419;28;7048;-84
2022/06/21 03:58:06;;;;;;;;;;;;;;;;;;4994401;28;7071;-85
2022/06/21 04:00:39;;;;;;;;;;;;;;;;;;4978699;28;8313;-84
2022/06/21 04:03:15;;;;;;;;;;;;;;;;;;4978034;28;6980;-84
2022/06/21 04:05:48;;;;;;;;;;;;;;;;;;4977875;28;7013;-84
2022/06/21 04:08:13;;;;;;;;;;;;;;;;;;4977799;28;8643;-85
2022/06/21 04:10:51;;;;;;;;;;;;;;;;;;4994215;28;7206;-84
2022/06/21 04:13:31;;;;;;;;;;;;;;;;;;4978424;28;7258;-85
2022/06/21 04:16:18;;;;;;;;;;;;;;;;;;4977397;28;7163;-84
2022/06/21 04:18:51;;;;;;;;;;;;;;;;;;4977951;28;7099;-85
2022/06/21 04:21:26;;;;;;;;;;;;;;;;;;4977516;28;7163;-85
2022/06/21 04:23:54;;;;;;;;;;;;;;;;;;4993652;28;7042;-85
2022/06/21 04:26:28;;;;;;;;;;;;;;;;;;4993898;28;8506;-84
2022/06/21 04:29:05;;;;;;;;;;;;;;;;;;4977392;28;7429;-84
2022/06/21 04:31:45;;;;;;;;;;;;;;;;;;4976727;28;8580;-85
2022/06/21 04:34:19;;;;;;;;;;;;;;;;;;4978040;28;8596;-84
2022/06/21 04:37:00;;;;;;;;;;;;;;;;;;4977655;28;7166;-85
2022/06/21 04:39:44;;;;;;;;;;;;;;;;;;4977952;28;7264;-85
2022/06/21 04:42:15;;;;;;;;;;;;;;;;;;4993197;28;8598;-85
2022/06/21 04:45:10;;;;;;;;;;;;;;;;;;4977311;28;8336;-86
2022/06/21 04:47:36;;;;;;;;;;;;;;;;;;4968471;28;7129;-85
2022/06/21 04:50:15;;;;;;;;;;;;;;;;;;4993431;28;7322;-85
2022/06/21 04:52:49;;;;;;;;;;;;;;;;;;4977771;28;7025;-85
2022/06/21 04:55:17;;;;;;;;;;;;;;;;;;4977432;28;8304;-85
2022/06/21 04:57:46;;;;;;;;;;;;;;;;;;4976825;28;7076;-85
2022/06/21 05:00:18;;;;;;;;;;;;;;;;;;4977895;28;7252;-86
2022/06/21 05:02:48;;;;;;;;;;;;;;;;;;4976881;28;8510;-85
2022/06/21 05:05:14;;;;;;;;;;;;;;;;;;4976621;28;6822;-85
2022/06/21 05:07:47;;;;;;;;;;;;;;;;;;4993206;28;7018;-86
2022/06/21 05:10:19;;;;;;;;;;;;;;;;;;4976688;28;8687;-86
2022/06/21 05:12:47;;;;;;;;;;;;;;;;;;4976764;28;7156;-85
2022/06/21 05:15:19;;;;;;;;;;;;;;;;;;4977023;28;8384;-85
2022/06/21 05:17:49;;;;;;;;;;;;;;;;;;4976652;28;8359;-85
2022/06/21 05:20:21;;;;;;;;;;;;;;;;;;4976147;28;8900;-85
2022/06/21 05:22:49;;;;;;;;;;;;;;;;;;4976618;28;8409;-86
2022/06/21 05:25:21;;;;;;;;;;;;;;;;;;4976630;28;8345;-85
2022/06/21 05:27:55;;;;;;;;;;;;;;;;;;4976507;28;7165;-85
2022/06/21 05:30:36;;;;;;;;;;;;;;;;;;4976361;28;7336;-85
2022/06/21 05:33:05;;;;;;;;;;;;;;;;;;4977772;28;7413;-86
2022/06/21 05:35:36;;;;;;;;;;;;;;;;;;4976180;28;7034;-84
2022/06/21 05:38:06;;;;;;;;;;;;;;;;;;4975528;28;8397;-82
2022/06/21 05:40:34;;;;;;;;;;;;;;;;;;4975938;28;7257;-85
2022/06/21 05:43:00;;;;;;;;;;;;;;;;;;4992319;28;7057;-86
2022/06/21 05:45:31;;;;;;;;;;;;;;;;;;4975779;28;8357;-85
2022/06/21 05:48:01;;;;;;;;;;;;;;;;;;4975586;28;7176;-85
2022/06/21 05:50:30;;;;;;;;;;;;;;;;;;4975779;28;8410;-84
2022/06/21 05:52:58;;;;;;;;;;;;;;;;;;4975590;28;8482;-85
2022/06/21 05:55:32;;;;;;;;;;;;;;;;;;4989332;28;8430;-85
2022/06/21 05:58:02;;;;;;;;;;;;;;;;;;4975560;28;8428;-84
2022/06/21 06:00:41;;;;;;;;;;;;;;;;;;4975197;28;7177;-84
2022/06/21 06:03:14;;;;;;;;;;;;;;;;;;4989688;28;7336;-86
2022/06/21 06:05:41;;;;;;;;;;;;;;;;;;4976245;28;7093;-85
2022/06/21 06:08:14;;;;;;;;;;;;;;;;;;4975260;28;7032;-85
2022/06/21 06:10:43;;;;;;;;;;;;;;;;;;4974932;28;8497;-85
2022/06/21 06:13:16;;;;;;;;;;;;;;;;;;4974862;28;8738;-85
2022/06/21 06:15:46;;;;;;;;;;;;;;;;;;4989647;28;7455;-86
2022/06/21 06:18:27;;;;;;;;;;;;;;;;;;4975114;28;7181;-87
2022/06/21 06:20:55;;;;;;;;;;;;;;;;;;4975284;28;8423;-86
2022/06/21 06:23:33;;;;;;;;;;;;;;;;;;4991496;28;8319;-86
2022/06/21 06:26:02;;;;;;;;;;;;;;;;;;4991442;28;8360;-86
2022/06/21 06:28:37;;;;;;;;;;;;;;;;;;4975386;28;7172;-86
2022/06/21 06:31:12;;;;;;;;;;;;;;;;;;4991935;28;8601;-86
2022/06/21 06:33:41;;;;;;;;;;;;;;;;;;4975356;28;7118;-86
2022/06/21 06:36:10;;;;;;;;;;;;;;;;;;4975438;28;8579;-86
2022/06/21 06:38:37;;;;;;;;;;;;;;;;;;4975485;28;8636;-85
2022/06/21 06:41:11;;;;;;;;;;;;;;;;;;4975259;28;8586;-85
2022/06/21 06:43:44;;;;;;;;;;;;;;;;;;4974918;28;8419;-85
2022/06/21 06:46:18;;;;;;;;;;;;;;;;;;4976123;28;7169;-86
2022/06/21 06:48:45;;;;;;;;;;;;;;;;;;4974793;28;7228;-86
2022/06/21 06:51:14;;;;;;;;;;;;;;;;;;4974842;28;7499;-85
2022/06/21 06:53:45;;;;;;;;;;;;;;;;;;4991410;28;8355;-86
2022/06/21 06:56:28;;;;;;;;;;;;;;;;;;4975311;28;8693;-86
2022/06/21 06:58:53;;;;;;;;;;;;;;;;;;4975936;28;8292;-85
2022/06/21 07:01:23;;;;;;;;;;;;;;;;;;4991326;28;7232;-85
2022/06/21 07:04:00;;;;;;;;;;;;;;;;;;4974950;28;7186;-86
2022/06/21 07:06:31;;;;;;;;;;;;;;;;;;4974868;28;8427;-86
2022/06/21 07:09:00;;;;;;;;;;;;;;;;;;4991001;28;8504;-85
2022/06/21 07:11:37;;;;;;;;;;;;;;;;;;4991049;28;8613;-85
2022/06/21 07:14:04;;;;;;;;;;;;;;;;;;4991119;28;7224;-86
2022/06/21 07:16:34;;;;;;;;;;;;;;;;;;4975079;28;8334;-86
2022/06/21 07:19:01;;;;;;;;;;;;;;;;;;4975110;28;8368;-87
2022/06/21 07:21:27;;;;;;;;;;;;;;;;;;4975085;28;8467;-86
2022/06/21 07:23:58;;;;;;;;;;;;;;;;;;4974842;28;7084;-89
2022/06/21 07:26:36;;;;;;;;;;;;;;;;;;4974266;28;7193;-86
2022/06/21 07:29:09;;;;;;;;;;;;;;;;;;4975070;28;7461;-86
2022/06/21 07:31:50;;;;;;;;;;;;;;;;;;4975163;28;8328;-85
2022/06/21 07:34:22;;;;;;;;;;;;;;;;;;4974420;28;7094;-86
2022/06/21 07:37:26;;;;;;;;;;;;;;;;;;4990681;28;7177;-87
2022/06/21 07:40:08;;;;;;;;;;;;;;;;;;4938593;29;8678;-86
2022/06/21 07:42:54;;;;;;;;;;;;;;;;;;4954934;28;7050;-86
2022/06/21 07:45:26;;;;;;;;;;;;;;;;;;4938156;29;7055;-86
2022/06/21 07:48:04;;;;;;;;;;;;;;;;;;4954821;28;7257;-86
2022/06/21 07:50:41;;;;;;;;;;;;;;;;;;4955460;28;8539;-86
2022/06/21 07:53:07;;;;;;;;;;;;;;;;;;4937893;29;7177;-86
2022/06/21 07:55:40;;;;;;;;;;;;;;;;;;4937823;29;8484;-85
2022/06/21 07:58:15;;;;;;;;;;;;;;;;;;4954479;28;8463;-86
2022/06/21 08:09:07;;;;;;;;;;;;;;;;;;4958233;28;6955;-87
2022/06/21 08:11:37;;;;;;;;;;;;;;;;;;4972785;28;8867;-86
2022/06/21 08:14:03;;;;;;;;;;;;;;;;;;4977991;28;7224;-86
2022/06/21 08:16:35;;;;;;;;;;;;;;;;;;4977880;28;7401;-86
2022/06/21 08:19:06;;;;;;;;;;;;;;;;;;4978220;28;8388;-87
2022/06/21 08:21:38;;;;;;;;;;;;;;;;;;4977790;28;8598;-87
2022/06/21 08:24:11;;;;;;;;;;;;;;;;;;4977566;28;7145;-85
2022/06/21 08:26:59;;;;;;;;;;;;;;;;;;4977692;28;8690;-88
2022/06/21 08:29:51;;;;;;;;;;;;;;;;;;4971921;28;8678;-87
2022/06/21 08:32:23;;;;;;;;;;;;;;;;;;4975221;28;8484;-86
2022/06/21 08:34:54;;;;;;;;;;;;;;;;;;4977256;28;7170;-86
2022/06/21 08:37:43;;;;;;;;;;;;;;;;;;4976484;28;7197;-87
2022/06/21 08:40:27;;;;;;;;;;;;;;;;;;4977912;28;7064;-86
2022/06/21 08:43:08;;;;;;;;;;;;;;;;;;4993460;28;8448;-87
2022/06/21 08:45:49;;;;;;;;;;;;;;;;;;4993238;28;8437;-86
2022/06/21 08:48:38;;;;;;;;;;;;;;;;;;4993677;28;7064;-87
2022/06/21 08:51:30;;;;;;;;;;;;;;;;;;4977706;28;8781;-85
2022/06/21 08:54:14;;;;;;;;;;;;;;;;;;4977512;28;7077;-87
2022/06/21 08:56:55;;;;;;;;;;;;;;;;;;4993579;28;7668;-85
2022/06/21 08:59:41;;;;;;;;;;;;;;;;;;4993241;28;7308;-87
2022/06/21 09:02:10;;;;;;;;;;;;;;;;;;4969483;28;7020;-86
2022/06/21 09:04:47;;;;;;;;;;;;;;;;;;4992948;28;7071;-86
2022/06/21 09:07:25;;;;;;;;;;;;;;;;;;4977710;28;7435;-86
2022/06/21 09:10:00;;;;;;;;;;;;;;;;;;4993268;28;8520;-87
2022/06/21 09:12:44;;;;;;;;;;;;;;;;;;4993483;28;7061;-87
2022/06/21 09:15:21;;;;;;;;;;;;;;;;;;4993132;28;7055;-88
2022/06/21 09:17:53;;;;;;;;;;;;;;;;;;4976472;28;8247;-87
2022/06/21 09:20:27;;;;;;;;;;;;;;;;;;4993003;28;8626;-87
2022/06/21 09:23:07;;;;;;;;;;;;;;;;;;4976742;28;8471;-87
2022/06/21 09:25:36;;;;;;;;;;;;;;;;;;4976329;28;7196;-88
2022/06/21 09:28:09;;;;;;;;;;;;;;;;;;4992851;28;6986;-88
2022/06/21 09:30:55;;;;;;;;;;;;;;;;;;4976935;28;7203;-87
2022/06/21 09:33:21;;;;;;;;;;;;;;;;;;4976974;28;8500;-87
2022/06/21 09:35:54;;;;;;;;;;;;;;;;;;4992551;28;8662;-86
2022/06/21 09:38:28;;;;;;;;;;;;;;;;;;4976651;28;7173;-86
2022/06/21 09:41:03;;;;;;;;;;;;;;;;;;4976258;28;7190;-87
2022/06/21 09:43:29;;;;;;;;;;;;;;;;;;4992636;28;7276;-87
2022/06/21 09:46:06;;;;;;;;;;;;;;;;;;4992323;28;8490;-87
2022/06/21 09:48:35;;;;;;;;;;;;;;;;;;4977609;28;7210;-86
2022/06/21 09:51:03;;;;;;;;;;;;;;;;;;4992459;28;7306;-88
2022/06/21 09:53:44;;;;;;;;;;;;;;;;;;4992607;28;8628;-87
2022/06/21 09:56:12;;;;;;;;;;;;;;;;;;4993008;28;8563;-84
2022/06/21 09:58:44;;;;;;;;;;;;;;;;;;4991951;28;7474;-88
2022/06/21 10:01:33;;;;;;;;;;;;;;;;;;4976390;28;8457;-85
2022/06/21 10:04:05;;;;;;;;;;;;;;;;;;4975845;28;7264;-85
2022/06/21 10:06:34;;;;;;;;;;;;;;;;;;4991629;28;8488;-88
2022/06/21 10:09:08;;;;;;;;;;;;;;;;;;4992178;28;8342;-88
2022/06/21 10:11:52;;;;;;;;;;;;;;;;;;4992141;28;8392;-87
2022/06/21 10:14:18;;;;;;;;;;;;;;;;;;4991983;28;7041;-88
2022/06/21 10:16:49;;;;;;;;;;;;;;;;;;4992098;28;7349;-88
2022/06/21 10:19:32;;;;;;;;;;;;;;;;;;4992196;28;8613;-88
2022/06/21 10:22:17;;;;;;;;;;;;;;;;;;4975779;28;7238;-89
2022/06/21 10:24:46;;;;;;;;;;;;;;;;;;4991797;28;8953;-88
2022/06/21 10:27:30;;;;;;;;;;;;;;;;;;4991242;28;8472;-88
2022/06/21 10:29:59;;;;;;;;;;;;;;;;;;4990873;28;8659;-88
2022/06/21 10:32:45;;;;;;;;;;;;;;;;;;4991980;28;7196;-87
2022/06/21 10:35:30;;;;;;;;;;;;;;;;;;4975129;28;7086;-89
2022/06/21 10:37:56;;;;;;;;;;;;;;;;;;4975238;28;7067;-88
2022/06/21 10:40:41;;;;;;;;;;;;;;;;;;4991817;28;7433;-88
2022/06/21 10:43:15;;;;;;;;;;;;;;;;;;4991635;28;7074;-88
2022/06/21 10:45:50;;;;;;;;;;;;;;;;;;4991634;28;7070;-88
2022/06/21 10:48:34;;;;;;;;;;;;;;;;;;4974813;28;8655;-86
2022/06/21 10:51:14;;;;;;;;;;;;;;;;;;4975241;28;9020;-85
2022/06/21 10:53:39;;;;;;;;;;;;;;;;;;4991244;28;8329;-85
2022/06/21 10:59:11;;;;;;;;;;;;;;;;;;4975788;28;6977;-85
2022/06/21 11:01:46;;;;;;;;;;;;;;;;;;4974037;28;8331;-85
2022/06/21 11:04:11;;;;;;;;;;;;;;;;;;4974764;28;7060;-85
2022/06/21 11:06:46;;;;;;;;;;;;;;;;;;4991154;28;7155;-84
2022/06/21 11:09:24;;;;;;;;;;;;;;;;;;4991427;28;7223;-86
2022/06/21 11:11:56;;;;;;;;;;;;;;;;;;4973573;28;7259;-85
2022/06/21 11:14:24;;;;;;;;;;;;;;;;;;4989665;28;7183;-86
2022/06/21 11:17:07;;;;;;;;;;;;;;;;;;4989504;28;8422;-78
2022/06/21 11:19:42;;;;;;;;;;;;;;;;;;4973193;28;8646;-87
2022/06/21 11:22:11;;;;;;;;;;;;;;;;;;4973151;28;7133;-85
2022/06/21 11:24:51;;;;;;;;;;;;;;;;;;4989394;28;7052;-85
2022/06/21 11:27:23;;;;;;;;;;;;;;;;;;4973259;28;7130;-85
2022/06/21 11:30:05;;;;;;;;;;;;;;;;;;4989412;28;8336;-85
2022/06/21 11:32:30;;;;;;;;;;;;;;;;;;4973834;28;8582;-86
2022/06/21 11:35:14;;;;;;;;;;;;;;;;;;4989792;28;8717;-85
2022/06/21 11:37:43;;;;;;;;;;;;;;;;;;4990676;28;7146;-86
2022/06/21 11:40:14;;;;;;;;;;;;;;;;;;4962342;28;12278;-85
2022/06/21 11:42:49;;;;;;;;;;;;;;;;;;4968431;28;7133;-88
2022/06/21 11:45:20;;;;;;;;;;;;;;;;;;4978930;28;8767;-84
2022/06/21 11:48:06;;;;;;;;;;;;;;;;;;4994956;28;8410;-85
2022/06/21 11:50:43;;;;;;;;;;;;;;;;;;4970813;28;8726;-84
2022/06/21 11:53:37;;;;;;;;;;;;;;;;;;4994190;28;7275;-84
2022/06/21 11:56:03;;;;;;;;;;;;;;;;;;4977610;28;7069;-84
2022/06/21 11:58:36;;;;;;;;;;;;;;;;;;4994098;28;8818;-84
2022/06/21 12:01:11;;;;;;;;;;;;;;;;;;4977836;28;8332;-83
2022/06/21 12:03:49;;;;;;;;;;;;;;;;;;4978214;28;7147;-85
2022/06/21 12:06:29;;;;;;;;;;;;;;;;;;4977692;28;7165;-84
2022/06/21 12:09:01;;;;;;;;;;;;;;;;;;4977901;28;8449;-85
2022/06/21 12:11:42;;;;;;;;;;;;;;;;;;4977944;28;7250;-85
2022/06/21 12:14:10;;;;;;;;;;;;;;;;;;4977723;28;7372;-85
2022/06/21 12:16:52;;;;;;;;;;;;;;;;;;4994044;28;8434;-85
2022/06/21 12:19:21;;;;;;;;;;;;;;;;;;4978514;28;8437;-86
2022/06/21 12:22:04;;;;;;;;;;;;;;;;;;4978234;28;7049;-84
2022/06/21 12:24:31;;;;;;;;;;;;;;;;;;4977834;28;7059;-84
2022/06/21 12:26:56;;;;;;;;;;;;;;;;;;4977411;28;7178;-85
2022/06/21 12:29:23;;;;;;;;;;;;;;;;;;4977883;28;8465;-85
2022/06/21 12:31:50;;;;;;;;;;;;;;;;;;4977615;28;7139;-85
2022/06/21 12:34:25;;;;;;;;;;;;;;;;;;4977641;28;8682;-85
2022/06/21 12:36:55;;;;;;;;;;;;;;;;;;4977758;28;8661;-85
2022/06/21 12:39:26;;;;;;;;;;;;;;;;;;4977369;28;7149;-85
2022/06/21 12:42:10;;;;;;;;;;;;;;;;;;4977539;28;8643;-86
2022/06/21 12:45:02;;;;;;;;;;;;;;;;;;4943270;28;11812;-84
2022/06/21 12:47:44;;;;;;;;;;;;;;;;;;4978196;28;7296;-84
2022/06/21 12:50:28;;;;;;;;;;;;;;;;;;4990731;28;7086;-85
2022/06/21 12:53:04;;;;;;;;;;;;;;;;;;4976260;28;8531;-82
2022/06/21 12:55:47;;;;;;;;;;;;;;;;;;4977258;28;8696;-86
2022/06/21 12:58:31;;;;;;;;;;;;;;;;;;4976561;28;8719;-85
2022/06/21 13:01:00;;;;;;;;;;;;;;;;;;4976430;28;8736;-85
2022/06/21 13:03:35;;;;;;;;;;;;;;;;;;4976587;28;7065;-85
2022/06/21 13:06:19;;;;;;;;;;;;;;;;;;4976891;28;7272;-84
2022/06/21 13:08:57;;;;;;;;;;;;;;;;;;4976686;28;7171;-85
2022/06/21 13:11:58;;;;;;;;;;;;;;;;;;4976137;28;8863;-86
2022/06/21 13:14:41;;;;;;;;;;;;;;;;;;4955230;28;8500;-84
2022/06/21 13:17:20;;;;;;;;;;;;;;;;;;4987706;28;8800;-86
2022/06/21 13:19:55;;;;;;;;;;;;;;;;;;4974911;28;7952;-84
2022/06/21 13:22:29;;;;;;;;;;;;;;;;;;4983268;28;8782;-85
2022/06/21 13:25:13;;;;;;;;;;;;;;;;;;4976300;28;7298;-84
2022/06/21 13:27:39;;;;;;;;;;;;;;;;;;4990137;28;7037;-85
2022/06/21 13:30:30;;;;;;;;;;;;;;;;;;4989165;28;9250;-85
2022/06/21 13:33:18;;;;;;;;;;;;;;;;;;4970782;28;7278;-85
2022/06/21 13:35:56;;;;;;;;;;;;;;;;;;4992385;28;7221;-85
2022/06/21 13:38:28;;;;;;;;;;;;;;;;;;4976572;28;7089;-85
2022/06/21 13:41:02;;;;;;;;;;;;;;;;;;4976193;28;8467;-84
2022/06/21 13:43:40;;;;;;;;;;;;;;;;;;4973289;28;8510;-85
2022/06/21 13:46:32;;;;;;;;;;;;;;;;;;4956874;28;6844;-85
2022/06/21 13:49:02;;;;;;;;;;;;;;;;;;4954555;28;7094;-85
2022/06/21 13:51:41;;;;;;;;;;;;;;;;;;4962607;28;8502;-85
2022/06/21 13:54:18;;;;;;;;;;;;;;;;;;4976439;28;8987;-85
2022/06/21 13:57:04;;;;;;;;;;;;;;;;;;4975959;28;8520;-85
2022/06/21 13:59:35;;;;;;;;;;;;;;;;;;4991384;28;8478;-85
2022/06/21 14:02:12;;;;;;;;;;;;;;;;;;4975932;28;7206;-85
2022/06/21 14:04:59;;;;;;;;;;;;;;;;;;4974853;28;8337;-86
2022/06/21 14:07:34;;;;;;;;;;;;;;;;;;4974346;28;7201;-85
2022/06/21 14:10:05;;;;;;;;;;;;;;;;;;4973596;28;7111;-85
2022/06/21 14:12:49;;;;;;;;;;;;;;;;;;4973886;28;7226;-85
2022/06/21 14:15:27;;;;;;;;;;;;;;;;;;4973949;28;7119;-85
2022/06/21 14:18:01;;;;;;;;;;;;;;;;;;4973701;28;8583;-87
2022/06/21 14:20:40;;;;;;;;;;;;;;;;;;4975009;28;8487;-78
2022/06/21 14:23:15;;;;;;;;;;;;;;;;;;4974872;28;7195;-85
2022/06/21 14:25:49;;;;;;;;;;;;;;;;;;4990739;28;7196;-85
2022/06/21 14:28:33;;;;;;;;;;;;;;;;;;4975635;28;7210;-85
2022/06/21 14:31:08;;;;;;;;;;;;;;;;;;4991280;28;8557;-85
2022/06/21 14:33:39;;;;;;;;;;;;;;;;;;4991383;28;8465;-86
2022/06/21 14:36:09;;;;;;;;;;;;;;;;;;4974958;28;8700;-85
2022/06/21 14:38:50;;;;;;;;;;;;;;;;;;4991179;28;8461;-85
2022/06/21 14:41:37;;;;;;;;;;;;;;;;;;4975023;28;8466;-87
2022/06/21 14:44:19;;;;;;;;;;;;;;;;;;4974642;28;7402;-85
2022/06/21 14:46:53;;;;;;;;;;;;;;;;;;4974899;28;7269;-85
2022/06/21 14:49:19;;;;;;;;;;;;;;;;;;4974698;28;8750;-85
2022/06/21 14:51:55;;;;;;;;;;;;;;;;;;4991068;28;8734;-85
2022/06/21 14:54:50;;;;;;;;;;;;;;;;;;4975021;28;6840;-85
2022/06/21 14:57:38;;;;;;;;;;;;;;;;;;4974579;28;7286;-86
2022/06/21 15:00:04;;;;;;;;;;;;;;;;;;4974737;28;8992;-85
2022/06/21 15:02:42;;;;;;;;;;;;;;;;;;4974404;28;8494;-85
2022/06/21 15:05:25;;;;;;;;;;;;;;;;;;4974559;28;8454;-86
2022/06/21 15:08:14;;;;;;;;;;;;;;;;;;4974744;28;8464;-86
2022/06/21 15:10:46;;;;;;;;;;;;;;;;;;4974800;28;7167;-87
2022/06/21 15:13:24;;;;;;;;;;;;;;;;;;4974984;28;7141;-86
2022/06/21 15:15:50;;;;;;;;;;;;;;;;;;4976733;28;8815;-85
2022/06/21 15:18:17;;;;;;;;;;;;;;;;;;4978111;28;8343;-86
2022/06/21 15:20:55;;;;;;;;;;;;;;;;;;4978674;28;8571;-85
2022/06/21 15:23:28;;;;;;;;;;;;;;;;;;4978903;28;7196;-86
2022/06/21 15:26:08;;;;;;;;;;;;;;;;;;4978684;28;8690;-85
2022/06/21 15:28:40;;;;;;;;;;;;;;;;;;4978531;28;8465;-85
2022/06/21 15:31:17;;;;;;;;;;;;;;;;;;4978423;28;8345;-85
2022/06/21 15:34:01;;;;;;;;;;;;;;;;;;4978285;28;8362;-86
2022/06/21 15:36:29;;;;;;;;;;;;;;;;;;4978532;28;8445;-85
2022/06/21 15:39:04;;;;;;;;;;;;;;;;;;4978652;28;8825;-86
2022/06/21 15:41:38;;;;;;;;;;;;;;;;;;4979898;28;8448;-86
2022/06/21 15:44:22;;;;;;;;;;;;;;;;;;4977888;28;8942;-86
2022/06/21 15:50:12;;;;;;;;;;;;;;;;;;4989599;28;8821;-85
2022/06/21 15:52:37;;;;;;;;;;;;;;;;;;4960347;28;6917;-85
2022/06/21 15:55:23;;;;;;;;;;;;;;;;;;4959174;28;8992;-86
2022/06/21 15:58:06;;;;;;;;;;;;;;;;;;4958982;28;8362;-86
2022/06/21 16:00:49;;;;;;;;;;;;;;;;;;4959007;28;8473;-86
2022/06/21 16:03:25;;;;;;;;;;;;;;;;;;4954626;28;7248;-86
2022/06/21 16:06:09;;;;;;;;;;;;;;;;;;4958401;28;8614;-86
2022/06/21 16:08:39;;;;;;;;;;;;;;;;;;4958557;28;7058;-86
2022/06/21 16:11:15;;;;;;;;;;;;;;;;;;4957765;28;8613;-85
2022/06/21 16:13:45;;;;;;;;;;;;;;;;;;4954316;28;7261;-84
2022/06/21 16:16:12;;;;;;;;;;;;;;;;;;4958720;28;8564;-85
2022/06/21 16:18:41;;;;;;;;;;;;;;;;;;4957884;28;8490;-85
2022/06/21 16:21:16;;;;;;;;;;;;;;;;;;4958717;28;7062;-85
2022/06/21 16:23:47;;;;;;;;;;;;;;;;;;4957966;28;8503;-85
2022/06/21 16:26:21;;;;;;;;;;;;;;;;;;4957501;28;7261;-85
2022/06/21 16:28:48;;;;;;;;;;;;;;;;;;4957343;28;7043;-85
2022/06/21 16:34:20;;;;;;;;;;;;;;;;;;4959390;28;6806;-85
2022/06/21 16:37:00;;;;;;;;;;;;;;;;;;4961216;28;6864;-85
2022/06/21 16:39:51;;;;;;;;;;;;;;;;;;4958458;28;7076;-84
2022/06/21 16:45:10;;;;;;;;;;;;;;;;;;4958605;28;6944;-85
2022/06/21 16:47:39;;;;;;;;;;;;;;;;;;4957662;28;8467;-86
2022/06/21 16:50:24;;;;;;;;;;;;;;;;;;4957057;28;8600;-85
2022/06/21 16:52:50;;;;;;;;;;;;;;;;;;4956727;28;8967;-85
2022/06/21 16:55:18;;;;;;;;;;;;;;;;;;4956110;28;7111;-84
2022/06/21 16:57:46;;;;;;;;;;;;;;;;;;4955789;28;7190;-84
2022/06/21 17:00:23;;;;;;;;;;;;;;;;;;4957218;28;7196;-85
2022/06/21 17:02:49;;;;;;;;;;;;;;;;;;4957172;28;8439;-84
2022/06/21 17:05:18;;;;;;;;;;;;;;;;;;4957193;28;8693;-85
2022/06/21 17:07:46;;;;;;;;;;;;;;;;;;4956937;28;7240;-85
2022/06/21 17:10:23;;;;;;;;;;;;;;;;;;4956863;28;7262;-85
2022/06/21 17:12:50;;;;;;;;;;;;;;;;;;4957150;28;8475;-85
2022/06/21 17:15:18;;;;;;;;;;;;;;;;;;4955449;28;8629;-85
2022/06/21 17:17:43;;;;;;;;;;;;;;;;;;4955861;28;8508;-85
2022/06/21 17:20:09;;;;;;;;;;;;;;;;;;4955871;28;7383;-86
2022/06/21 17:22:51;;;;;;;;;;;;;;;;;;4957119;28;7177;-85
2022/06/21 17:25:18;;;;;;;;;;;;;;;;;;4956449;28;8453;-85
2022/06/21 17:27:58;;;;;;;;;;;;;;;;;;4956744;28;7064;-85
2022/06/21 17:30:37;;;;;;;;;;;;;;;;;;4957234;28;7270;-85
2022/06/21 17:33:17;;;;;;;;;;;;;;;;;;4956271;28;8715;-85
2022/06/21 17:35:48;;;;;;;;;;;;;;;;;;4956864;28;8342;-86
2022/06/21 17:38:24;;;;;;;;;;;;;;;;;;4956532;28;8635;-85
2022/06/21 17:40:50;;;;;;;;;;;;;;;;;;4955990;28;9322;-85
2022/06/21 17:43:36;;;;;;;;;;;;;;;;;;4956521;28;8315;-85
2022/06/21 17:46:07;;;;;;;;;;;;;;;;;;4962214;28;8448;-86
2022/06/21 17:48:37;;;;;;;;;;;;;;;;;;4956112;28;8733;-86
2022/06/21 17:51:16;;;;;;;;;;;;;;;;;;4956330;28;9157;-85
2022/06/21 17:53:51;;;;;;;;;;;;;;;;;;4956302;28;8547;-85
2022/06/21 17:56:29;;;;;;;;;;;;;;;;;;4955649;28;8830;-87
2022/06/21 17:59:03;;;;;;;;;;;;;;;;;;4956013;28;7367;-88
2022/06/21 18:01:29;;;;;;;;;;;;;;;;;;4956533;28;8429;-88
2022/06/21 18:04:13;;;;;;;;;;;;;;;;;;4955355;28;8418;-88
2022/06/21 18:06:48;;;;;;;;;;;;;;;;;;4956414;28;7260;-88
2022/06/21 18:09:29;;;;;;;;;;;;;;;;;;4955596;28;8440;-87
2022/06/21 18:12:05;;;;;;;;;;;;;;;;;;4955909;28;8362;-88
2022/06/21 18:14:34;;;;;;;;;;;;;;;;;;4956438;28;8377;-88
2022/06/21 18:17:21;;;;;;;;;;;;;;;;;;4955514;28;8310;-88
2022/06/21 18:19:59;;;;;;;;;;;;;;;;;;4956193;28;7167;-88
2022/06/21 18:22:30;;;;;;;;;;;;;;;;;;4955645;28;8908;-88